sensor_id;sensor_type;location;lat;lon;timestamp;temperature;humidity
20670;DHT22;10494;50.868;4.180;2023-11-19T00:00:25;13.80;99.90
20670;DHT22;10494;50.868;4.180;2023-11-19T00:02:51;13.80;99.90
20670;DHT22;10494;50.868;4.180;2023-11-19T00:05:16;13.90;99.90
20670;DHT22;10494;50.868;4.180;2023-11-19T00:07:42;13.80;99.90
20670;DHT22;10494;50.868;4.180;2023-11-19T00:10:09;13.80;99.90
20670;DHT22;10494;50.868;4.180;2023-11-19T00:12:36;13.80;99.90
20670;DHT22;10494;50.868;4.180;2023-11-19T00:15:01;13.80;99.90
20670;DHT22;10494;50.868;4.180;2023-11-19T00:17:27;13.70;99.90
20670;DHT22;10494;50.868;4.180;2023-11-19T00:19:52;13.70;99.90
20670;DHT22;10494;50.868;4.180;2023-11-19T00:22:18;13.80;99.90
20670;DHT22;10494;50.868;4.180;2023-11-19T00:24:43;13.80;99.90
20670;DHT22;10494;50.868;4.180;2023-11-19T00:27:10;13.80;99.90
20670;DHT22;10494;50.868;4.180;2023-11-19T00:29:35;13.80;99.90
20670;DHT22;10494;50.868;4.180;2023-11-19T00:32:01;13.80;99.90
20670;DHT22;10494;50.868;4.180;2023-11-19T00:34:27;13.80;99.90
20670;DHT22;10494;50.868;4.180;2023-11-19T00:36:52;13.80;99.90
20670;DHT22;10494;50.868;4.180;2023-11-19T00:39:20;13.80;99.90
20670;DHT22;10494;50.868;4.180;2023-11-19T00:41:46;13.80;99.90
20670;DHT22;10494;50.868;4.180;2023-11-19T00:44:12;13.70;99.90
20670;DHT22;10494;50.868;4.180;2023-11-19T00:46:37;13.70;99.90
20670;DHT22;10494;50.868;4.180;2023-11-19T00:49:03;13.70;99.90
20670;DHT22;10494;50.868;4.180;2023-11-19T00:51:29;13.80;99.90
20670;DHT22;10494;50.868;4.180;2023-11-19T00:53:57;13.80;99.90
20670;DHT22;10494;50.868;4.180;2023-11-19T00:56:22;13.80;99.90
20670;DHT22;10494;50.868;4.180;2023-11-19T00:58:48;13.80;99.90
20670;DHT22;10494;50.868;4.180;2023-11-19T01:01:14;13.80;99.90
20670;DHT22;10494;50.868;4.180;2023-11-19T01:03:39;13.80;99.90
20670;DHT22;10494;50.868;4.180;2023-11-19T01:06:05;13.70;99.90
20670;DHT22;10494;50.868;4.180;2023-11-19T01:08:31;13.80;99.90
20670;DHT22;10494;50.868;4.180;2023-11-19T01:10:57;13.90;99.90
20670;DHT22;10494;50.868;4.180;2023-11-19T01:13:22;13.80;99.90
20670;DHT22;10494;50.868;4.180;2023-11-19T01:15:48;13.80;99.90
20670;DHT22;10494;50.868;4.180;2023-11-19T01:18:13;13.80;99.90
20670;DHT22;10494;50.868;4.180;2023-11-19T01:20:39;13.80;99.90
20670;DHT22;10494;50.868;4.180;2023-11-19T01:23:04;13.90;99.90
20670;DHT22;10494;50.868;4.180;2023-11-19T01:25:30;13.70;99.90
20670;DHT22;10494;50.868;4.180;2023-11-19T01:27:56;13.70;99.90
20670;DHT22;10494;50.868;4.180;2023-11-19T01:30:24;13.90;99.90
20670;DHT22;10494;50.868;4.180;2023-11-19T01:32:50;13.90;99.90
20670;DHT22;10494;50.868;4.180;2023-11-19T01:35:16;14.00;99.90
20670;DHT22;10494;50.868;4.180;2023-11-19T01:37:41;14.00;99.90
20670;DHT22;10494;50.868;4.180;2023-11-19T01:40:07;13.80;99.90
20670;DHT22;10494;50.868;4.180;2023-11-19T01:42:39;13.80;99.90
20670;DHT22;10494;50.868;4.180;2023-11-19T01:45:06;13.70;99.90
20670;DHT22;10494;50.868;4.180;2023-11-19T01:47:35;13.80;99.90
20670;DHT22;10494;50.868;4.180;2023-11-19T01:50:02;13.70;99.90
20670;DHT22;10494;50.868;4.180;2023-11-19T01:52:33;13.70;99.90
20670;DHT22;10494;50.868;4.180;2023-11-19T01:54:59;13.80;99.90
20670;DHT22;10494;50.868;4.180;2023-11-19T01:57:25;13.70;99.90
20670;DHT22;10494;50.868;4.180;2023-11-19T01:59:52;13.60;99.90
20670;DHT22;10494;50.868;4.180;2023-11-19T02:02:19;13.50;99.90
20670;DHT22;10494;50.868;4.180;2023-11-19T02:04:49;13.40;99.90
20670;DHT22;10494;50.868;4.180;2023-11-19T02:07:15;13.40;99.90
20670;DHT22;10494;50.868;4.180;2023-11-19T02:09:43;13.40;99.90
20670;DHT22;10494;50.868;4.180;2023-11-19T02:12:09;13.30;99.90
20670;DHT22;10494;50.868;4.180;2023-11-19T02:14:37;13.30;99.90
20670;DHT22;10494;50.868;4.180;2023-11-19T02:17:04;13.30;99.90
20670;DHT22;10494;50.868;4.180;2023-11-19T02:19:29;13.40;99.90
20670;DHT22;10494;50.868;4.180;2023-11-19T02:21:55;13.40;99.90
20670;DHT22;10494;50.868;4.180;2023-11-19T02:24:22;13.40;99.90
20670;DHT22;10494;50.868;4.180;2023-11-19T02:27:07;13.40;99.90
20670;DHT22;10494;50.868;4.180;2023-11-19T02:29:35;13.40;99.90
20670;DHT22;10494;50.868;4.180;2023-11-19T02:32:00;13.30;99.90
20670;DHT22;10494;50.868;4.180;2023-11-19T02:34:27;13.30;99.90
20670;DHT22;10494;50.868;4.180;2023-11-19T02:36:52;13.40;99.90
20670;DHT22;10494;50.868;4.180;2023-11-19T02:39:19;13.30;99.90
20670;DHT22;10494;50.868;4.180;2023-11-19T02:41:47;13.30;99.90
20670;DHT22;10494;50.868;4.180;2023-11-19T02:44:14;13.30;99.90
20670;DHT22;10494;50.868;4.180;2023-11-19T02:46:40;13.20;99.90
20670;DHT22;10494;50.868;4.180;2023-11-19T02:49:07;13.20;99.90
20670;DHT22;10494;50.868;4.180;2023-11-19T02:51:33;13.20;99.90
20670;DHT22;10494;50.868;4.180;2023-11-19T02:54:00;13.10;99.90
20670;DHT22;10494;50.868;4.180;2023-11-19T02:56:25;13.00;99.90
20670;DHT22;10494;50.868;4.180;2023-11-19T02:58:52;13.00;99.90
20670;DHT22;10494;50.868;4.180;2023-11-19T03:01:24;13.00;99.90
20670;DHT22;10494;50.868;4.180;2023-11-19T03:03:58;12.90;99.90
20670;DHT22;10494;50.868;4.180;2023-11-19T03:06:24;12.90;99.90
20670;DHT22;10494;50.868;4.180;2023-11-19T03:08:50;12.80;99.90
20670;DHT22;10494;50.868;4.180;2023-11-19T03:11:16;12.80;99.90
20670;DHT22;10494;50.868;4.180;2023-11-19T03:13:41;12.90;99.90
20670;DHT22;10494;50.868;4.180;2023-11-19T03:16:07;12.80;99.90
20670;DHT22;10494;50.868;4.180;2023-11-19T03:18:33;12.70;99.90
20670;DHT22;10494;50.868;4.180;2023-11-19T03:20:58;12.80;99.90
20670;DHT22;10494;50.868;4.180;2023-11-19T03:23:24;12.70;99.90
20670;DHT22;10494;50.868;4.180;2023-11-19T03:25:53;12.70;99.90
20670;DHT22;10494;50.868;4.180;2023-11-19T03:28:19;12.80;99.90
20670;DHT22;10494;50.868;4.180;2023-11-19T03:30:45;12.80;99.90
20670;DHT22;10494;50.868;4.180;2023-11-19T03:33:11;12.70;99.90
20670;DHT22;10494;50.868;4.180;2023-11-19T03:35:37;12.70;99.90
20670;DHT22;10494;50.868;4.180;2023-11-19T03:38:02;12.70;99.90
20670;DHT22;10494;50.868;4.180;2023-11-19T03:40:28;12.70;99.90
20670;DHT22;10494;50.868;4.180;2023-11-19T03:42:56;12.70;99.90
20670;DHT22;10494;50.868;4.180;2023-11-19T03:45:22;12.70;99.90
20670;DHT22;10494;50.868;4.180;2023-11-19T03:47:48;12.60;99.90
20670;DHT22;10494;50.868;4.180;2023-11-19T03:50:15;12.70;99.90
20670;DHT22;10494;50.868;4.180;2023-11-19T03:52:41;12.50;99.90
20670;DHT22;10494;50.868;4.180;2023-11-19T03:55:07;12.50;99.90
20670;DHT22;10494;50.868;4.180;2023-11-19T03:57:34;12.50;99.90
20670;DHT22;10494;50.868;4.180;2023-11-19T03:59:59;12.50;99.90
20670;DHT22;10494;50.868;4.180;2023-11-19T04:02:25;12.70;99.90
20670;DHT22;10494;50.868;4.180;2023-11-19T04:04:54;12.70;99.90
20670;DHT22;10494;50.868;4.180;2023-11-19T04:07:20;12.70;99.90
20670;DHT22;10494;50.868;4.180;2023-11-19T04:09:46;12.70;99.90
20670;DHT22;10494;50.868;4.180;2023-11-19T04:12:12;12.80;99.90
20670;DHT22;10494;50.868;4.180;2023-11-19T04:14:37;12.80;99.90
20670;DHT22;10494;50.868;4.180;2023-11-19T04:17:03;12.80;99.90
20670;DHT22;10494;50.868;4.180;2023-11-19T04:19:29;12.70;99.90
20670;DHT22;10494;50.868;4.180;2023-11-19T04:21:54;12.70;99.90
20670;DHT22;10494;50.868;4.180;2023-11-19T04:24:20;12.70;99.90
20670;DHT22;10494;50.868;4.180;2023-11-19T04:26:45;12.70;99.90
20670;DHT22;10494;50.868;4.180;2023-11-19T04:29:13;12.70;99.90
20670;DHT22;10494;50.868;4.180;2023-11-19T04:31:40;12.70;99.90
20670;DHT22;10494;50.868;4.180;2023-11-19T04:34:06;12.60;99.90
20670;DHT22;10494;50.868;4.180;2023-11-19T04:36:38;12.60;99.90
20670;DHT22;10494;50.868;4.180;2023-11-19T04:39:04;12.60;99.90
20670;DHT22;10494;50.868;4.180;2023-11-19T04:41:47;12.50;99.90
20670;DHT22;10494;50.868;4.180;2023-11-19T04:44:14;12.60;99.90
20670;DHT22;10494;50.868;4.180;2023-11-19T04:46:41;12.50;99.90
20670;DHT22;10494;50.868;4.180;2023-11-19T04:49:08;12.50;99.90
20670;DHT22;10494;50.868;4.180;2023-11-19T04:51:40;12.50;99.90
20670;DHT22;10494;50.868;4.180;2023-11-19T04:54:06;12.40;99.90
20670;DHT22;10494;50.868;4.180;2023-11-19T04:56:34;12.40;99.90
20670;DHT22;10494;50.868;4.180;2023-11-19T04:59:00;12.30;99.90
20670;DHT22;10494;50.868;4.180;2023-11-19T05:01:26;12.40;99.90
20670;DHT22;10494;50.868;4.180;2023-11-19T05:03:53;12.40;99.90
20670;DHT22;10494;50.868;4.180;2023-11-19T05:06:18;12.30;99.90
20670;DHT22;10494;50.868;4.180;2023-11-19T05:08:44;12.30;99.90
20670;DHT22;10494;50.868;4.180;2023-11-19T05:11:10;12.20;99.90
20670;DHT22;10494;50.868;4.180;2023-11-19T05:13:38;12.20;99.90
20670;DHT22;10494;50.868;4.180;2023-11-19T05:16:03;12.20;99.90
20670;DHT22;10494;50.868;4.180;2023-11-19T05:18:29;12.20;99.90
20670;DHT22;10494;50.868;4.180;2023-11-19T05:20:55;12.20;99.90
20670;DHT22;10494;50.868;4.180;2023-11-19T05:23:20;12.20;99.90
20670;DHT22;10494;50.868;4.180;2023-11-19T05:25:46;12.10;99.90
20670;DHT22;10494;50.868;4.180;2023-11-19T05:28:13;12.00;99.90
20670;DHT22;10494;50.868;4.180;2023-11-19T05:30:39;12.00;99.90
20670;DHT22;10494;50.868;4.180;2023-11-19T05:33:05;12.10;99.90
20670;DHT22;10494;50.868;4.180;2023-11-19T05:35:32;12.10;99.90
20670;DHT22;10494;50.868;4.180;2023-11-19T05:37:57;12.20;99.90
20670;DHT22;10494;50.868;4.180;2023-11-19T05:40:23;12.20;99.90
20670;DHT22;10494;50.868;4.180;2023-11-19T05:42:49;12.30;99.90
20670;DHT22;10494;50.868;4.180;2023-11-19T05:45:14;12.40;99.90
20670;DHT22;10494;50.868;4.180;2023-11-19T05:47:41;12.40;99.90
20670;DHT22;10494;50.868;4.180;2023-11-19T05:50:06;12.30;99.90
20670;DHT22;10494;50.868;4.180;2023-11-19T05:52:32;12.40;99.90
20670;DHT22;10494;50.868;4.180;2023-11-19T05:55:02;12.30;99.90
20670;DHT22;10494;50.868;4.180;2023-11-19T05:57:30;12.20;99.90
20670;DHT22;10494;50.868;4.180;2023-11-19T05:59:56;12.20;99.90
20670;DHT22;10494;50.868;4.180;2023-11-19T06:02:22;12.10;99.90
20670;DHT22;10494;50.868;4.180;2023-11-19T06:04:47;12.00;99.90
20670;DHT22;10494;50.868;4.180;2023-11-19T06:07:13;12.00;99.90
20670;DHT22;10494;50.868;4.180;2023-11-19T06:09:40;12.00;99.90
20670;DHT22;10494;50.868;4.180;2023-11-19T06:12:06;12.00;99.90
20670;DHT22;10494;50.868;4.180;2023-11-19T06:14:32;12.00;99.90
20670;DHT22;10494;50.868;4.180;2023-11-19T06:16:58;11.90;99.90
20670;DHT22;10494;50.868;4.180;2023-11-19T06:19:23;11.90;99.90
20670;DHT22;10494;50.868;4.180;2023-11-19T06:21:50;11.90;99.90
20670;DHT22;10494;50.868;4.180;2023-11-19T06:24:16;11.90;99.90
20670;DHT22;10494;50.868;4.180;2023-11-19T06:26:41;11.90;99.90
20670;DHT22;10494;50.868;4.180;2023-11-19T06:29:07;11.80;99.90
20670;DHT22;10494;50.868;4.180;2023-11-19T06:31:33;11.80;99.90
20670;DHT22;10494;50.868;4.180;2023-11-19T06:33:58;11.70;99.90
20670;DHT22;10494;50.868;4.180;2023-11-19T06:36:24;11.70;99.90
20670;DHT22;10494;50.868;4.180;2023-11-19T06:38:50;11.80;99.90
20670;DHT22;10494;50.868;4.180;2023-11-19T06:41:15;11.70;99.90
20670;DHT22;10494;50.868;4.180;2023-11-19T06:43:41;11.70;99.90
20670;DHT22;10494;50.868;4.180;2023-11-19T06:46:15;11.70;99.90
20670;DHT22;10494;50.868;4.180;2023-11-19T06:48:40;11.60;99.90
20670;DHT22;10494;50.868;4.180;2023-11-19T06:51:08;11.60;99.90
20670;DHT22;10494;50.868;4.180;2023-11-19T06:53:34;11.60;99.90
20670;DHT22;10494;50.868;4.180;2023-11-19T06:55:59;11.60;99.90
20670;DHT22;10494;50.868;4.180;2023-11-19T06:58:25;11.60;99.90
20670;DHT22;10494;50.868;4.180;2023-11-19T07:00:51;11.60;99.90
20670;DHT22;10494;50.868;4.180;2023-11-19T07:03:17;11.60;99.90
20670;DHT22;10494;50.868;4.180;2023-11-19T07:05:42;11.60;99.90
20670;DHT22;10494;50.868;4.180;2023-11-19T07:08:09;11.60;99.90
20670;DHT22;10494;50.868;4.180;2023-11-19T07:10:34;11.60;99.90
20670;DHT22;10494;50.868;4.180;2023-11-19T07:13:00;11.70;99.90
20670;DHT22;10494;50.868;4.180;2023-11-19T07:15:25;11.60;99.90
20670;DHT22;10494;50.868;4.180;2023-11-19T07:17:51;11.70;99.90
20670;DHT22;10494;50.868;4.180;2023-11-19T07:20:19;11.80;99.90
20670;DHT22;10494;50.868;4.180;2023-11-19T07:22:44;11.80;99.90
20670;DHT22;10494;50.868;4.180;2023-11-19T07:25:14;11.80;99.90
20670;DHT22;10494;50.868;4.180;2023-11-19T07:27:40;11.80;99.90
20670;DHT22;10494;50.868;4.180;2023-11-19T07:30:06;11.70;99.90
20670;DHT22;10494;50.868;4.180;2023-11-19T07:32:35;11.70;99.90
20670;DHT22;10494;50.868;4.180;2023-11-19T07:35:00;11.80;99.90
20670;DHT22;10494;50.868;4.180;2023-11-19T07:37:26;11.80;99.90
20670;DHT22;10494;50.868;4.180;2023-11-19T07:39:52;11.80;99.90
20670;DHT22;10494;50.868;4.180;2023-11-19T07:42:17;11.90;99.90
20670;DHT22;10494;50.868;4.180;2023-11-19T07:44:43;11.90;99.90
20670;DHT22;10494;50.868;4.180;2023-11-19T07:47:09;12.00;99.90
20670;DHT22;10494;50.868;4.180;2023-11-19T07:49:35;12.00;99.90
20670;DHT22;10494;50.868;4.180;2023-11-19T07:52:01;12.00;99.90
20670;DHT22;10494;50.868;4.180;2023-11-19T07:54:28;12.20;99.90
20670;DHT22;10494;50.868;4.180;2023-11-19T07:56:54;12.30;99.90
20670;DHT22;10494;50.868;4.180;2023-11-19T07:59:19;12.20;99.90
20670;DHT22;10494;50.868;4.180;2023-11-19T08:01:45;12.20;99.90
20670;DHT22;10494;50.868;4.180;2023-11-19T08:04:11;12.30;99.90
20670;DHT22;10494;50.868;4.180;2023-11-19T08:06:36;12.40;99.90
20670;DHT22;10494;50.868;4.180;2023-11-19T08:09:02;12.60;99.90
20670;DHT22;10494;50.868;4.180;2023-11-19T08:11:28;12.80;99.90
20670;DHT22;10494;50.868;4.180;2023-11-19T08:13:53;12.90;99.90
20670;DHT22;10494;50.868;4.180;2023-11-19T08:16:19;13.00;99.90
20670;DHT22;10494;50.868;4.180;2023-11-19T08:18:44;13.10;99.90
20670;DHT22;10494;50.868;4.180;2023-11-19T08:21:10;13.30;99.90
20670;DHT22;10494;50.868;4.180;2023-11-19T08:23:36;13.40;99.90
20670;DHT22;10494;50.868;4.180;2023-11-19T08:26:02;13.50;99.90
20670;DHT22;10494;50.868;4.180;2023-11-19T08:28:28;13.50;90.10
20670;DHT22;10494;50.868;4.180;2023-11-19T08:30:53;13.40;89.30
20670;DHT22;10494;50.868;4.180;2023-11-19T08:33:19;13.30;92.40
20670;DHT22;10494;50.868;4.180;2023-11-19T08:35:47;13.10;99.90
20670;DHT22;10494;50.868;4.180;2023-11-19T08:38:13;12.90;99.90
20670;DHT22;10494;50.868;4.180;2023-11-19T08:40:39;12.80;99.90
20670;DHT22;10494;50.868;4.180;2023-11-19T08:43:04;12.60;99.90
20670;DHT22;10494;50.868;4.180;2023-11-19T08:45:30;12.50;99.90
20670;DHT22;10494;50.868;4.180;2023-11-19T08:47:57;12.40;99.90
20670;DHT22;10494;50.868;4.180;2023-11-19T08:50:22;12.20;99.90
20670;DHT22;10494;50.868;4.180;2023-11-19T08:52:49;12.20;99.90
20670;DHT22;10494;50.868;4.180;2023-11-19T08:55:14;12.20;99.90
20670;DHT22;10494;50.868;4.180;2023-11-19T08:57:40;12.20;99.90
20670;DHT22;10494;50.868;4.180;2023-11-19T09:00:07;12.20;99.90
20670;DHT22;10494;50.868;4.180;2023-11-19T09:02:34;12.20;99.90
20670;DHT22;10494;50.868;4.180;2023-11-19T09:05:01;12.30;99.90
20670;DHT22;10494;50.868;4.180;2023-11-19T09:07:27;12.30;99.90
20670;DHT22;10494;50.868;4.180;2023-11-19T09:09:52;12.30;99.90
20670;DHT22;10494;50.868;4.180;2023-11-19T09:12:18;12.60;99.90
20670;DHT22;10494;50.868;4.180;2023-11-19T09:14:44;12.90;99.90
20670;DHT22;10494;50.868;4.180;2023-11-19T09:17:11;13.20;99.90
20670;DHT22;10494;50.868;4.180;2023-11-19T09:19:37;13.30;99.90
20670;DHT22;10494;50.868;4.180;2023-11-19T09:22:03;13.60;99.90
20670;DHT22;10494;50.868;4.180;2023-11-19T09:24:29;13.50;99.90
20670;DHT22;10494;50.868;4.180;2023-11-19T09:26:54;13.30;99.90
20670;DHT22;10494;50.868;4.180;2023-11-19T09:29:21;13.30;99.90
20670;DHT22;10494;50.868;4.180;2023-11-19T09:31:47;13.60;99.90
20670;DHT22;10494;50.868;4.180;2023-11-19T09:34:13;13.90;99.90
20670;DHT22;10494;50.868;4.180;2023-11-19T09:36:38;14.20;97.40
20670;DHT22;10494;50.868;4.180;2023-11-19T09:39:08;14.40;90.00
20670;DHT22;10494;50.868;4.180;2023-11-19T09:41:34;14.90;71.30
20670;DHT22;10494;50.868;4.180;2023-11-19T09:44:00;15.00;26.80
20670;DHT22;10494;50.868;4.180;2023-11-19T09:46:26;15.20;27.40
20670;DHT22;10494;50.868;4.180;2023-11-19T09:48:56;15.40;1.00
20670;DHT22;10494;50.868;4.180;2023-11-19T09:51:23;15.30;1.00
20670;DHT22;10494;50.868;4.180;2023-11-19T09:53:49;15.20;99.90
20670;DHT22;10494;50.868;4.180;2023-11-19T09:56:15;15.20;99.90
20670;DHT22;10494;50.868;4.180;2023-11-19T09:58:42;15.40;99.90
20670;DHT22;10494;50.868;4.180;2023-11-19T10:01:08;15.60;99.90
20670;DHT22;10494;50.868;4.180;2023-11-19T10:03:37;15.50;99.90
20670;DHT22;10494;50.868;4.180;2023-11-19T10:06:10;15.80;99.90
20670;DHT22;10494;50.868;4.180;2023-11-19T10:08:40;15.60;99.90
20670;DHT22;10494;50.868;4.180;2023-11-19T10:11:06;15.20;99.90
20670;DHT22;10494;50.868;4.180;2023-11-19T10:13:35;14.90;99.90
20670;DHT22;10494;50.868;4.180;2023-11-19T10:16:07;14.80;99.90
20670;DHT22;10494;50.868;4.180;2023-11-19T10:18:33;14.70;99.90
20670;DHT22;10494;50.868;4.180;2023-11-19T10:21:04;14.80;99.90
20670;DHT22;10494;50.868;4.180;2023-11-19T10:23:29;14.90;99.90
20670;DHT22;10494;50.868;4.180;2023-11-19T10:26:02;14.70;99.90
20670;DHT22;10494;50.868;4.180;2023-11-19T10:28:39;14.70;99.90
20670;DHT22;10494;50.868;4.180;2023-11-19T10:31:05;14.40;99.90
20670;DHT22;10494;50.868;4.180;2023-11-19T10:33:31;14.20;99.90
20670;DHT22;10494;50.868;4.180;2023-11-19T10:35:57;14.10;99.90
20670;DHT22;10494;50.868;4.180;2023-11-19T10:38:24;13.90;99.90
20670;DHT22;10494;50.868;4.180;2023-11-19T10:40:53;13.80;99.90
20670;DHT22;10494;50.868;4.180;2023-11-19T10:43:23;13.70;99.90
20670;DHT22;10494;50.868;4.180;2023-11-19T10:45:48;13.70;99.90
20670;DHT22;10494;50.868;4.180;2023-11-19T10:48:14;13.90;99.90
20670;DHT22;10494;50.868;4.180;2023-11-19T10:50:41;14.20;99.90
20670;DHT22;10494;50.868;4.180;2023-11-19T10:53:10;14.40;99.90
20670;DHT22;10494;50.868;4.180;2023-11-19T10:55:39;14.50;99.90
20670;DHT22;10494;50.868;4.180;2023-11-19T10:58:05;14.70;99.90
20670;DHT22;10494;50.868;4.180;2023-11-19T11:05:40;14.60;99.90
20670;DHT22;10494;50.868;4.180;2023-11-19T11:08:07;14.30;99.90
20670;DHT22;10494;50.868;4.180;2023-11-19T11:10:38;14.10;99.90
20670;DHT22;10494;50.868;4.180;2023-11-19T11:13:05;14.00;99.90
20670;DHT22;10494;50.868;4.180;2023-11-19T11:15:31;14.10;99.90
20670;DHT22;10494;50.868;4.180;2023-11-19T11:18:02;14.10;99.90
20670;DHT22;10494;50.868;4.180;2023-11-19T11:20:32;14.10;99.90
20670;DHT22;10494;50.868;4.180;2023-11-19T11:26:10;14.20;99.90
20670;DHT22;10494;50.868;4.180;2023-11-19T11:31:37;14.10;99.90
20670;DHT22;10494;50.868;4.180;2023-11-19T11:36:57;14.10;99.90
20670;DHT22;10494;50.868;4.180;2023-11-19T11:39:26;14.10;99.90
20670;DHT22;10494;50.868;4.180;2023-11-19T11:45:06;14.10;99.90
20670;DHT22;10494;50.868;4.180;2023-11-19T11:55:36;14.60;99.90
20670;DHT22;10494;50.868;4.180;2023-11-19T11:58:03;14.60;99.90
20670;DHT22;10494;50.868;4.180;2023-11-19T12:00:32;14.80;99.90
20670;DHT22;10494;50.868;4.180;2023-11-19T12:03:04;14.80;99.90
20670;DHT22;10494;50.868;4.180;2023-11-19T12:05:30;14.70;99.90
20670;DHT22;10494;50.868;4.180;2023-11-19T12:08:04;14.50;99.90
20670;DHT22;10494;50.868;4.180;2023-11-19T12:10:36;14.40;99.90
20670;DHT22;10494;50.868;4.180;2023-11-19T12:13:06;14.30;99.90
20670;DHT22;10494;50.868;4.180;2023-11-19T12:15:32;14.10;99.90
20670;DHT22;10494;50.868;4.180;2023-11-19T12:17:58;14.20;99.90
20670;DHT22;10494;50.868;4.180;2023-11-19T12:20:25;14.00;99.90
20670;DHT22;10494;50.868;4.180;2023-11-19T12:22:52;13.80;99.90
20670;DHT22;10494;50.868;4.180;2023-11-19T12:25:19;13.70;99.90
20670;DHT22;10494;50.868;4.180;2023-11-19T12:27:50;13.60;99.90
20670;DHT22;10494;50.868;4.180;2023-11-19T12:30:23;13.60;99.90
20670;DHT22;10494;50.868;4.180;2023-11-19T12:32:53;13.50;1.00
20670;DHT22;10494;50.868;4.180;2023-11-19T12:35:19;13.50;1.00
20670;DHT22;10494;50.868;4.180;2023-11-19T12:37:46;13.50;1.00
20670;DHT22;10494;50.868;4.180;2023-11-19T12:40:17;13.50;1.00
20670;DHT22;10494;50.868;4.180;2023-11-19T12:42:43;13.50;1.00
20670;DHT22;10494;50.868;4.180;2023-11-19T12:45:09;13.60;1.00
20670;DHT22;10494;50.868;4.180;2023-11-19T12:47:36;13.70;1.00
20670;DHT22;10494;50.868;4.180;2023-11-19T12:50:02;13.80;1.00
20670;DHT22;10494;50.868;4.180;2023-11-19T12:52:29;13.90;1.00
20670;DHT22;10494;50.868;4.180;2023-11-19T12:54:55;13.80;1.00
20670;DHT22;10494;50.868;4.180;2023-11-19T12:57:35;13.70;1.00
20670;DHT22;10494;50.868;4.180;2023-11-19T13:00:01;13.80;1.00
20670;DHT22;10494;50.868;4.180;2023-11-19T13:02:48;13.90;1.00
20670;DHT22;10494;50.868;4.180;2023-11-19T13:05:24;14.00;1.00
20670;DHT22;10494;50.868;4.180;2023-11-19T13:08:07;13.90;1.00
20670;DHT22;10494;50.868;4.180;2023-11-19T13:10:34;13.90;1.00
20670;DHT22;10494;50.868;4.180;2023-11-19T13:13:15;14.00;1.00
20670;DHT22;10494;50.868;4.180;2023-11-19T13:15:41;14.10;99.90
20670;DHT22;10494;50.868;4.180;2023-11-19T13:18:06;14.20;99.90
20670;DHT22;10494;50.868;4.180;2023-11-19T13:20:32;14.10;99.90
20670;DHT22;10494;50.868;4.180;2023-11-19T13:23:00;14.20;99.90
20670;DHT22;10494;50.868;4.180;2023-11-19T13:25:26;14.00;99.90
20670;DHT22;10494;50.868;4.180;2023-11-19T13:27:53;13.90;99.90
20670;DHT22;10494;50.868;4.180;2023-11-19T13:30:19;13.90;99.90
20670;DHT22;10494;50.868;4.180;2023-11-19T13:32:45;13.80;1.00
20670;DHT22;10494;50.868;4.180;2023-11-19T13:35:12;13.80;1.00
20670;DHT22;10494;50.868;4.180;2023-11-19T13:37:38;13.80;1.00
20670;DHT22;10494;50.868;4.180;2023-11-19T13:40:05;13.90;1.00
20670;DHT22;10494;50.868;4.180;2023-11-19T13:42:30;13.70;1.00
20670;DHT22;10494;50.868;4.180;2023-11-19T13:44:56;13.60;1.00
20670;DHT22;10494;50.868;4.180;2023-11-19T13:47:22;13.60;1.00
20670;DHT22;10494;50.868;4.180;2023-11-19T13:49:47;13.50;1.00
20670;DHT22;10494;50.868;4.180;2023-11-19T13:52:13;13.50;1.00
20670;DHT22;10494;50.868;4.180;2023-11-19T13:54:38;13.60;1.00
20670;DHT22;10494;50.868;4.180;2023-11-19T13:57:04;13.70;1.00
20670;DHT22;10494;50.868;4.180;2023-11-19T13:59:31;13.70;1.00
20670;DHT22;10494;50.868;4.180;2023-11-19T14:01:59;13.60;1.00
20670;DHT22;10494;50.868;4.180;2023-11-19T14:04:25;13.70;1.00
20670;DHT22;10494;50.868;4.180;2023-11-19T14:06:51;13.50;1.00
20670;DHT22;10494;50.868;4.180;2023-11-19T14:09:16;13.50;1.00
20670;DHT22;10494;50.868;4.180;2023-11-19T14:11:43;13.60;1.00
20670;DHT22;10494;50.868;4.180;2023-11-19T14:14:08;13.50;1.00
20670;DHT22;10494;50.868;4.180;2023-11-19T14:16:34;13.40;1.00
20670;DHT22;10494;50.868;4.180;2023-11-19T14:19:00;13.30;1.00
20670;DHT22;10494;50.868;4.180;2023-11-19T14:21:25;13.20;1.00
20670;DHT22;10494;50.868;4.180;2023-11-19T14:23:52;13.20;1.00
20670;DHT22;10494;50.868;4.180;2023-11-19T14:26:18;13.00;2.00
20670;DHT22;10494;50.868;4.180;2023-11-19T14:28:44;13.00;37.30
20670;DHT22;10494;50.868;4.180;2023-11-19T14:31:09;12.90;99.90
20670;DHT22;10494;50.868;4.180;2023-11-19T14:33:35;12.80;99.90
20670;DHT22;10494;50.868;4.180;2023-11-19T14:36:01;12.80;99.90
20670;DHT22;10494;50.868;4.180;2023-11-19T14:38:27;12.80;99.90
20670;DHT22;10494;50.868;4.180;2023-11-19T14:40:53;12.80;99.90
20670;DHT22;10494;50.868;4.180;2023-11-19T14:43:20;12.90;99.90
20670;DHT22;10494;50.868;4.180;2023-11-19T14:45:45;12.90;99.90
20670;DHT22;10494;50.868;4.180;2023-11-19T14:48:11;13.00;99.90
20670;DHT22;10494;50.868;4.180;2023-11-19T14:50:36;13.00;99.90
20670;DHT22;10494;50.868;4.180;2023-11-19T14:53:02;13.00;99.90
20670;DHT22;10494;50.868;4.180;2023-11-19T14:55:28;12.90;99.90
20670;DHT22;10494;50.868;4.180;2023-11-19T14:57:54;12.90;99.90
20670;DHT22;10494;50.868;4.180;2023-11-19T15:00:19;12.80;99.90
20670;DHT22;10494;50.868;4.180;2023-11-19T15:02:46;12.70;99.90
20670;DHT22;10494;50.868;4.180;2023-11-19T15:05:12;12.70;99.90
20670;DHT22;10494;50.868;4.180;2023-11-19T15:07:38;12.60;99.90
20670;DHT22;10494;50.868;4.180;2023-11-19T15:10:06;12.70;99.90
20670;DHT22;10494;50.868;4.180;2023-11-19T15:12:37;12.70;99.90
20670;DHT22;10494;50.868;4.180;2023-11-19T15:15:06;12.80;99.90
20670;DHT22;10494;50.868;4.180;2023-11-19T15:17:32;12.80;99.90
20670;DHT22;10494;50.868;4.180;2023-11-19T15:19:57;12.80;99.90
20670;DHT22;10494;50.868;4.180;2023-11-19T15:22:23;12.80;99.90
20670;DHT22;10494;50.868;4.180;2023-11-19T15:24:48;12.90;99.90
20670;DHT22;10494;50.868;4.180;2023-11-19T15:27:14;13.00;99.90
20670;DHT22;10494;50.868;4.180;2023-11-19T15:29:40;13.00;99.90
20670;DHT22;10494;50.868;4.180;2023-11-19T15:32:06;13.00;99.90
20670;DHT22;10494;50.868;4.180;2023-11-19T15:34:33;13.00;99.90
20670;DHT22;10494;50.868;4.180;2023-11-19T15:36:59;13.00;99.90
20670;DHT22;10494;50.868;4.180;2023-11-19T15:39:26;13.10;99.90
20670;DHT22;10494;50.868;4.180;2023-11-19T15:41:59;13.10;99.90
20670;DHT22;10494;50.868;4.180;2023-11-19T15:44:25;13.10;99.90
20670;DHT22;10494;50.868;4.180;2023-11-19T15:46:51;13.10;99.90
20670;DHT22;10494;50.868;4.180;2023-11-19T15:49:16;13.00;99.90
20670;DHT22;10494;50.868;4.180;2023-11-19T15:51:42;12.90;99.90
20670;DHT22;10494;50.868;4.180;2023-11-19T15:54:07;12.80;99.90